Time;durP1;ratioP1;P1;durP2;ratioP2;P2;SDS_P1;SDS_P2;PMS_P1;PMS_P2;Temp;Humidity;BMP_temperature;BMP_pressure;BME280_temperature;BME280_humidity;BME280_pressure;Samples;Min_cycle;Max_cycle;Signal;HPM_P1;HPM_P2
2023/06/24 00:00:18;;;;;;;11.90;9.25;;;;;;;18.02;100.00;102378.38;5080551;28;20024;-70
2023/06/24 00:02:45;;;;;;;12.32;10.15;;;;;;;17.95;100.00;102390.03;5082486;28;20084;-70
2023/06/24 00:05:10;;;;;;;14.23;10.02;;;;;;;17.84;100.00;102383.34;5086291;28;20031;-70
2023/06/24 00:07:43;;;;;;;12.57;10.93;;;;;;;17.86;100.00;102386.81;5086908;28;20019;-70
2023/06/24 00:10:13;;;;;;;13.02;10.23;;;;;;;17.88;100.00;102387.63;5085976;28;20107;-70
2023/06/24 00:12:39;;;;;;;13.65;10.48;;;;;;;17.90;100.00;102389.31;5085740;28;20154;-70
2023/06/24 00:15:06;;;;;;;14.65;10.10;;;;;;;17.85;100.00;102382.41;5087574;28;20070;-70
2023/06/24 00:17:31;;;;;;;11.25;10.02;;;;;;;17.82;100.00;102391.31;5083642;28;20042;-70
2023/06/24 00:19:57;;;;;;;13.05;10.52;;;;;;;17.76;100.00;102394.09;5081892;28;20464;-70
2023/06/24 00:22:22;;;;;;;12.38;10.90;;;;;;;17.68;100.00;102386.38;5084116;28;20036;-70
2023/06/24 00:24:47;;;;;;;12.43;11.13;;;;;;;17.64;100.00;102390.03;5087269;28;20032;-70
2023/06/24 00:27:15;;;;;;;13.63;11.43;;;;;;;17.54;100.00;102392.06;5085949;28;20115;-70
2023/06/24 00:29:41;;;;;;;12.75;11.45;;;;;;;17.46;100.00;102391.41;5085103;28;20445;-70
2023/06/24 00:32:07;;;;;;;18.15;11.68;;;;;;;17.53;100.00;102392.13;5086859;28;20020;-70
2023/06/24 00:34:32;;;;;;;12.50;9.93;;;;;;;17.48;100.00;102394.84;5084306;28;20035;-70
2023/06/24 00:36:57;;;;;;;11.95;10.75;;;;;;;17.43;100.00;102399.41;5086491;28;20047;-70
2023/06/24 00:39:23;;;;;;;12.20;10.77;;;;;;;17.40;100.00;102407.41;5080340;28;20107;-70
2023/06/24 00:41:49;;;;;;;12.73;11.13;;;;;;;17.40;100.00;102391.59;5086198;28;20468;-70
2023/06/24 00:44:14;;;;;;;12.85;11.45;;;;;;;17.35;100.00;102400.50;5086160;28;20040;-70
2023/06/24 00:46:39;;;;;;;12.40;11.10;;;;;;;17.31;100.00;102395.31;5085897;28;20017;-70
2023/06/24 00:49:05;;;;;;;12.98;11.60;;;;;;;17.30;100.00;102401.50;5071984;28;20430;-70
2023/06/24 00:51:31;;;;;;;16.42;11.70;;;;;;;17.24;100.00;102409.56;5087100;28;20112;-70
2023/06/24 00:53:58;;;;;;;13.15;11.80;;;;;;;17.26;100.00;102405.13;5084450;28;20465;-70
2023/06/24 00:56:29;;;;;;;12.50;11.18;;;;;;;17.26;100.00;102404.25;5089749;28;20074;-71
2023/06/24 00:58:57;;;;;;;14.48;11.73;;;;;;;17.27;100.00;102404.22;5074307;28;20044;-70
2023/06/24 01:01:23;;;;;;;12.98;11.25;;;;;;;17.26;100.00;102399.84;5090805;28;20036;-70
2023/06/24 01:03:49;;;;;;;13.05;10.95;;;;;;;17.19;100.00;102398.28;5082777;28;20117;-70
2023/06/24 01:06:15;;;;;;;12.48;11.20;;;;;;;17.19;100.00;102400.91;5091047;28;20041;-70
2023/06/24 01:08:40;;;;;;;14.55;11.85;;;;;;;17.17;100.00;102393.97;5082988;28;20544;-70
2023/06/24 01:11:06;;;;;;;13.00;11.63;;;;;;;17.17;100.00;102388.72;5091816;28;20020;-70
2023/06/24 01:13:31;;;;;;;13.65;11.25;;;;;;;17.21;100.00;102387.72;5082089;28;20024;-70
2023/06/24 01:16:04;;;;;;;13.32;11.85;;;;;;;17.19;100.00;102385.09;5082604;28;20081;-70
2023/06/24 01:18:37;;;;;;;12.35;11.00;;;;;;;17.19;100.00;102387.75;5088002;28;20035;-70
2023/06/24 01:21:08;;;;;;;12.77;11.13;;;;;;;17.15;100.00;102383.47;5078283;28;20028;-70
2023/06/24 01:23:36;;;;;;;12.50;11.20;;;;;;;17.09;100.00;102387.13;5088446;28;20065;-70
2023/06/24 01:26:30;;;;;;;14.98;11.35;;;;;;;17.12;100.00;102394.09;5081880;28;20559;-70
2023/06/24 01:29:27;;;;;;;13.13;11.20;;;;;;;17.07;100.00;102388.94;5077769;28;20047;-70
2023/06/24 01:32:10;;;;;;;11.90;10.45;;;;;;;16.95;100.00;102373.44;5063924;28;20142;-70
2023/06/24 01:34:48;;;;;;;14.07;10.80;;;;;;;16.90;100.00;102375.31;5080416;28;20531;-70
2023/06/24 01:37:19;;;;;;;14.07;10.38;;;;;;;16.84;100.00;102381.63;5085900;28;20038;-70
2023/06/24 01:39:52;;;;;;;13.75;10.95;;;;;;;16.70;100.00;102372.28;5076170;28;20039;-70
2023/06/24 01:42:21;;;;;;;12.25;10.52;;;;;;;16.69;100.00;102378.47;5085735;28;20052;-70
2023/06/24 01:44:48;;;;;;;14.65;10.45;;;;;;;16.63;100.00;102385.59;5084025;28;20047;-70
2023/06/24 01:47:18;;;;;;;14.13;10.40;;;;;;;16.55;100.00;102381.44;5084771;28;20546;-70
2023/06/24 01:49:52;;;;;;;12.55;10.20;;;;;;;16.47;100.00;102386.00;5084866;28;20032;-70
2023/06/24 01:52:17;;;;;;;;;;;;;;;16.49;100.00;102382.44;5086174;28;20073;-70
2023/06/24 01:54:46;;;;;;;10.95;9.85;;;;;;;16.40;100.00;102385.28;5084444;28;19923;-70
2023/06/24 01:57:12;;;;;;;13.25;10.60;;;;;;;16.33;100.00;102375.81;5084985;28;20035;-70
2023/06/24 01:59:40;;;;;;;13.55;10.00;;;;;;;16.26;100.00;102375.09;5079738;28;20052;-70
2023/06/24 02:02:07;;;;;;;13.07;10.35;;;;;;;16.16;100.00;102376.22;5083880;28;20540;-70
2023/06/24 02:04:33;;;;;;;14.35;10.35;;;;;;;16.17;100.00;102374.44;5084796;28;20499;-70
2023/06/24 02:07:08;;;;;;;14.10;10.18;;;;;;;16.11;100.00;102365.75;5085075;28;20036;-71
2023/06/24 02:09:35;;;;;;;11.98;10.57;;;;;;;16.08;100.00;102370.22;5072423;28;20156;-71
2023/06/24 02:12:03;;;;;;;12.05;10.75;;;;;;;16.04;100.00;102372.06;5083185;28;20039;-70
2023/06/24 02:14:30;;;;;;;11.82;10.63;;;;;;;15.98;100.00;102371.34;5084656;28;20020;-70
2023/06/24 02:16:57;;;;;;;15.25;11.30;;;;;;;15.94;100.00;102365.28;5083944;28;20031;-70
2023/06/24 02:19:26;;;;;;;13.68;11.30;;;;;;;15.88;100.00;102366.28;5083144;28;20032;-71
2023/06/24 02:21:56;;;;;;;12.55;10.80;;;;;;;15.85;100.00;102368.97;5084211;28;20052;-70
2023/06/24 02:24:21;;;;;;;13.18;10.52;;;;;;;15.86;100.00;102368.09;5082135;28;20030;-70
2023/06/24 02:26:47;;;;;;;18.60;11.10;;;;;;;15.88;100.00;102368.91;5083802;28;20026;-70
2023/06/24 02:29:13;;;;;;;14.57;11.18;;;;;;;15.87;100.00;102369.81;5082702;28;20037;-70
2023/06/24 02:31:39;;;;;;;14.18;11.07;;;;;;;15.80;100.00;102372.59;5082971;28;20039;-70
2023/06/24 02:34:04;;;;;;;13.07;11.18;;;;;;;15.73;100.00;102370.97;5085813;28;20021;-71
2023/06/24 02:36:30;;;;;;;13.98;11.50;;;;;;;15.74;100.00;102370.09;5080421;28;20103;-70
2023/06/24 02:38:55;;;;;;;14.68;12.10;;;;;;;15.71;100.00;102370.16;5078381;28;20375;-70
2023/06/24 02:41:21;;;;;;;15.77;11.40;;;;;;;15.64;100.00;102370.25;5085696;28;20021;-70
2023/06/24 02:43:46;;;;;;;13.20;11.07;;;;;;;15.57;100.00;102366.03;5081830;28;20036;-70
2023/06/24 02:46:12;;;;;;;13.18;11.55;;;;;;;15.56;100.00;102371.28;5087657;28;20052;-70
2023/06/24 02:48:40;;;;;;;13.90;11.82;;;;;;;15.51;100.00;102366.13;5081146;28;20078;-70
2023/06/24 02:51:09;;;;;;;13.82;11.15;;;;;;;15.52;100.00;102351.22;5088324;28;20444;-70
2023/06/24 02:53:37;;;;;;;15.82;11.45;;;;;;;15.58;100.00;102361.63;5075104;28;20048;-70
2023/06/24 02:56:04;;;;;;;14.02;12.32;;;;;;;15.56;100.00;102363.41;5081254;28;20029;-70
2023/06/24 02:58:31;;;;;;;19.25;12.32;;;;;;;15.53;100.00;102364.38;5076157;28;20032;-71
2023/06/24 03:00:59;;;;;;;13.48;11.93;;;;;;;15.49;100.00;102370.56;5079268;28;20468;-71
2023/06/24 03:03:26;;;;;;;14.25;12.43;;;;;;;15.54;100.00;102387.13;5084126;28;20040;-71
2023/06/24 03:05:54;;;;;;;15.63;12.70;;;;;;;15.52;100.00;102394.16;5080610;28;20107;-71
2023/06/24 03:08:19;;;;;;;16.95;12.48;;;;;;;15.44;100.00;102394.31;5087627;28;20134;-70
2023/06/24 03:10:44;;;;;;;15.95;12.65;;;;;;;15.49;100.00;102396.84;5075699;28;20527;-70
2023/06/24 03:13:10;;;;;;;17.65;12.43;;;;;;;15.48;100.00;102400.38;5084625;28;20027;-70
2023/06/24 03:15:35;;;;;;;22.17;12.85;;;;;;;15.46;100.00;102396.88;5080667;28;20077;-71
2023/06/24 03:18:01;;;;;;;17.70;11.75;;;;;;;15.38;100.00;102397.03;5086001;28;20051;-70
2023/06/24 03:20:26;;;;;;;19.35;11.60;;;;;;;15.32;100.00;102391.91;5081401;28;20737;-70
2023/06/24 03:22:52;;;;;;;24.08;12.05;;;;;;;15.26;100.00;102383.25;5079723;28;20025;-70
2023/06/24 03:25:17;;;;;;;23.08;13.23;;;;;;;15.29;100.00;102385.84;5084425;28;20035;-71
2023/06/24 03:27:43;;;;;;;22.90;13.18;;;;;;;15.23;100.00;102386.81;5081846;28;20092;-70
2023/06/24 03:30:10;;;;;;;19.15;13.10;;;;;;;15.27;100.00;102385.00;5083693;28;20119;-71
2023/06/24 03:32:36;;;;;;;23.48;12.73;;;;;;;15.20;100.00;102382.50;5082018;28;20107;-70
2023/06/24 03:35:07;;;;;;;16.23;12.57;;;;;;;15.21;100.00;102386.84;5083916;28;20051;-70
2023/06/24 03:37:32;;;;;;;18.05;12.88;;;;;;;15.22;100.00;102385.09;5075496;28;20100;-70
2023/06/24 03:39:57;;;;;;;19.00;13.15;;;;;;;15.17;100.00;102366.78;5087088;28;20095;-71
2023/06/24 03:42:29;;;;;;;16.38;12.23;;;;;;;15.20;100.00;102379.88;5087824;28;20460;-70
2023/06/24 03:44:54;;;;;;;20.55;13.88;;;;;;;15.15;100.00;102379.09;5087788;28;20040;-70
2023/06/24 03:47:20;;;;;;;19.70;13.77;;;;;;;15.18;100.00;102388.66;5087619;28;20375;-70
2023/06/24 03:49:45;;;;;;;19.08;13.13;;;;;;;15.21;100.00;102386.84;5087273;28;20099;-70
2023/06/24 03:52:10;;;;;;;18.48;12.45;;;;;;;15.15;100.00;102365.94;5088194;28;20055;-70
2023/06/24 03:54:36;;;;;;;21.90;13.60;;;;;;;15.28;100.00;102395.50;5085598;28;20044;-70
2023/06/24 03:57:01;;;;;;;22.15;12.88;;;;;;;15.27;100.00;102388.50;5086395;28;20032;-71
2023/06/24 03:59:26;;;;;;;16.48;13.05;;;;;;;15.25;100.00;102398.16;5083308;28;20475;-71
2023/06/24 04:01:52;;;;;;;23.73;13.48;;;;;;;15.12;100.00;102389.63;5080446;28;20021;-70
2023/06/24 04:04:17;;;;;;;19.42;13.80;;;;;;;15.21;100.00;102404.38;5086931;28;20550;-70
2023/06/24 04:06:42;;;;;;;15.57;12.73;;;;;;;15.14;100.00;102387.88;5083806;28;20174;-70
2023/06/24 04:09:09;;;;;;;20.60;12.85;;;;;;;15.14;100.00;102390.50;5084527;28;20024;-70
2023/06/24 04:11:35;;;;;;;19.58;12.77;;;;;;;15.22;100.00;102400.84;5090066;28;20110;-70
2023/06/24 04:14:00;;;;;;;20.05;13.63;;;;;;;15.30;100.00;102400.69;5084233;28;20064;-70
2023/06/24 04:16:25;;;;;;;19.10;12.93;;;;;;;15.37;100.00;102400.59;5090298;28;20027;-70
2023/06/24 04:18:51;;;;;;;19.50;13.18;;;;;;;15.41;100.00;102393.50;5083893;28;20031;-71
2023/06/24 04:21:22;;;;;;;21.23;13.60;;;;;;;15.45;100.00;102398.66;5091014;28;20086;-70
2023/06/24 04:23:47;;;;;;;22.20;13.73;;;;;;;15.45;100.00;102401.28;5083440;28;20438;-71
2023/06/24 04:26:12;;;;;;;19.33;13.70;;;;;;;15.42;100.00;102396.09;5090913;28;20024;-70
2023/06/24 04:28:38;;;;;;;19.00;13.80;;;;;;;15.49;100.00;102403.84;5083206;28;20759;-70
2023/06/24 04:31:04;;;;;;;21.85;14.32;;;;;;;15.53;100.00;102406.41;5089115;28;20027;-70
2023/06/24 04:33:29;;;;;;;19.27;14.40;;;;;;;15.53;100.00;102403.78;5086345;28;20042;-71
2023/06/24 04:35:54;;;;;;;18.23;15.00;;;;;;;15.60;100.00;102397.50;5086358;28;20017;-70
2023/06/24 04:38:19;;;;;;;19.50;14.45;;;;;;;15.64;100.00;102406.19;5087062;28;20028;-70
2023/06/24 04:40:45;;;;;;;19.65;14.48;;;;;;;15.67;100.00;102399.16;5086006;28;20024;-71
2023/06/24 04:43:10;;;;;;;19.25;15.57;;;;;;;15.66;100.00;102394.78;5086206;28;20032;-70
2023/06/24 04:45:36;;;;;;;20.10;15.25;;;;;;;15.80;100.00;102396.28;5086388;28;20367;-70
2023/06/24 04:48:01;;;;;;;24.23;16.55;;;;;;;15.81;100.00;102401.50;5086696;28;20051;-70
2023/06/24 04:50:26;;;;;;;19.65;15.40;;;;;;;15.85;100.00;102400.53;5084759;28;20092;-71
2023/06/24 04:52:54;;;;;;;19.40;15.38;;;;;;;15.93;100.00;102405.63;5086476;28;20021;-70
2023/06/24 04:55:21;;;;;;;20.52;15.30;;;;;;;15.96;100.00;102395.06;5086679;28;20427;-70
2023/06/24 04:57:47;;;;;;;20.17;16.85;;;;;;;16.03;100.00;102399.28;5085985;28;20103;-70
2023/06/24 05:00:15;;;;;;;18.48;15.52;;;;;;;16.08;100.00;102393.91;5081852;28;20100;-71
2023/06/24 05:02:40;;;;;;;21.70;15.73;;;;;;;16.12;100.00;102401.72;5082238;28;20028;-70
2023/06/24 05:05:06;;;;;;;21.15;17.15;;;;;;;16.18;100.00;102395.44;5084035;28;20119;-70
2023/06/24 05:07:32;;;;;;;19.65;16.15;;;;;;;16.23;100.00;102384.81;5086119;28;20034;-70
2023/06/24 05:09:57;;;;;;;19.67;16.15;;;;;;;16.29;100.00;102387.31;5085859;28;20099;-70
2023/06/24 05:12:22;;;;;;;18.42;15.63;;;;;;;16.41;100.00;102402.81;5084981;28;20036;-71
2023/06/24 05:14:52;;;;;;;23.65;16.80;;;;;;;16.39;100.00;102396.72;5086486;28;20020;-70
2023/06/24 05:17:20;;;;;;;18.55;16.00;;;;;;;16.46;100.00;102406.22;5085142;28;20021;-70
2023/06/24 05:19:45;;;;;;;19.23;16.60;;;;;;;16.49;100.00;102395.63;5085092;28;20020;-71
2023/06/24 05:22:11;;;;;;;19.85;17.25;;;;;;;16.50;100.00;102392.06;5085373;28;20537;-70
2023/06/24 05:24:36;;;;;;;22.17;16.25;;;;;;;16.54;100.00;102384.97;5084745;28;20028;-71
2023/06/24 05:27:06;;;;;;;20.17;16.75;;;;;;;16.65;100.00;102395.25;5087326;28;20074;-70
2023/06/24 05:29:32;;;;;;;21.13;17.23;;;;;;;16.70;100.00;102393.38;5083540;28;20036;-71
2023/06/24 05:31:58;;;;;;;18.50;15.73;;;;;;;16.73;100.00;102395.94;5088444;28;20476;-71
2023/06/24 05:34:23;;;;;;;18.27;15.98;;;;;;;16.76;100.00;102394.09;5082171;28;20507;-71
2023/06/24 05:36:49;;;;;;;17.10;15.30;;;;;;;16.84;100.00;102402.69;5090926;28;20064;-70
2023/06/24 05:39:14;;;;;;;17.35;15.45;;;;;;;16.93;100.00;102403.34;5082229;28;20013;-71
2023/06/24 05:41:39;;;;;;;17.67;14.57;;;;;;;16.98;100.00;102404.97;5090379;28;20533;-70
2023/06/24 05:44:07;;;;;;;17.75;14.73;;;;;;;17.06;100.00;102408.28;5082514;28;20426;-70
2023/06/24 05:46:33;;;;;;;19.02;14.50;;;;;;;17.09;100.00;102404.69;5081716;28;20017;-71
2023/06/24 05:48:58;;;;;;;15.57;13.85;;;;;;;17.12;100.00;102401.13;5082278;28;20082;-71
2023/06/24 05:51:24;;;;;;;16.30;13.02;;;;;;;17.24;100.00;102404.31;5082004;28;20036;-71
2023/06/24 05:53:49;;;;;;;17.63;13.68;;;;;;;17.33;100.00;102413.75;5087194;28;20036;-70
2023/06/24 05:56:14;;;;;;;15.55;12.82;;;;;;;17.39;100.00;102410.91;5082274;28;20426;-70
2023/06/24 05:58:40;;;;;;;17.77;13.30;;;;;;;17.46;100.00;102408.97;5083387;28;20024;-70
2023/06/24 06:01:06;;;;;;;14.80;11.95;;;;;;;17.49;100.00;102411.53;5083338;28;20039;-71
2023/06/24 06:03:32;;;;;;;16.63;12.68;;;;;;;17.56;100.00;102410.50;5077645;28;20451;-70
2023/06/24 06:05:57;;;;;;;14.13;12.02;;;;;;;17.63;100.00;102406.75;5089110;28;20058;-71
2023/06/24 06:08:22;;;;;;;24.83;12.73;;;;;;;17.61;100.00;102389.25;5080703;28;20037;-70
2023/06/24 06:10:48;;;;;;;14.95;12.48;;;;;;;17.72;100.00;102402.97;5087098;28;20027;-70
2023/06/24 06:13:13;;;;;;;13.73;11.85;;;;;;;17.81;100.00;102412.44;5083752;28;20079;-70
2023/06/24 06:15:38;;;;;;;15.32;12.27;;;;;;;17.84;100.00;102407.09;5076782;28;20039;-70
2023/06/24 06:18:04;;;;;;;16.55;11.50;;;;;;;17.89;100.00;102402.56;5084854;28;20107;-70
2023/06/24 06:20:29;;;;;;;13.93;11.35;;;;;;;17.99;100.00;102407.50;5076181;28;20031;-70
2023/06/24 06:22:57;;;;;;;14.50;10.73;;;;;;;18.04;100.00;102407.34;5084252;28;20470;-70
2023/06/24 06:25:23;;;;;;;14.07;11.30;;;;;;;18.12;100.00;102415.91;5083707;28;20032;-70
2023/06/24 06:27:49;;;;;;;12.63;10.55;;;;;;;18.13;100.00;102411.50;5089856;28;20028;-71
2023/06/24 06:30:14;;;;;;;13.98;10.93;;;;;;;18.17;100.00;102416.63;5084110;28;20036;-70
2023/06/24 06:32:40;;;;;;;13.45;10.95;;;;;;;18.24;95.26;102417.31;5083700;28;20141;-70
2023/06/24 06:35:09;;;;;;;11.75;9.88;;;;;;;18.28;98.04;102418.97;5084230;28;20031;-71
2023/06/24 06:37:34;;;;;;;13.00;10.75;;;;;;;18.25;95.99;102396.16;5083525;28;20109;-70
2023/06/24 06:39:59;;;;;;;11.93;9.10;;;;;;;18.39;96.26;102422.13;5084697;28;20515;-71
2023/06/24 06:42:25;;;;;;;12.90;9.52;;;;;;;18.45;95.34;102421.06;5084503;28;20414;-70
2023/06/24 06:44:50;;;;;;;13.25;9.85;;;;;;;18.46;96.95;102423.66;5083440;28;20033;-70
2023/06/24 06:47:15;;;;;;;10.63;8.80;;;;;;;18.53;95.80;102424.31;5087909;28;20043;-70
2023/06/24 06:49:41;;;;;;;11.82;8.43;;;;;;;18.56;95.13;102423.38;5080443;28;20028;-70
2023/06/24 06:52:06;;;;;;;11.40;8.27;;;;;;;18.64;92.81;102431.94;5089516;28;20055;-70
2023/06/24 06:54:32;;;;;;;11.07;8.48;;;;;;;18.74;90.32;102436.03;5080966;28;20032;-70
2023/06/24 06:57:01;;;;;;;13.45;9.48;;;;;;;18.79;92.29;102431.44;5081755;28;20468;-70
2023/06/24 06:59:27;;;;;;;11.48;8.98;;;;;;;18.86;92.22;102432.97;5082943;28;20074;-70
2023/06/24 07:01:52;;;;;;;10.52;8.88;;;;;;;18.97;89.55;102431.78;5077160;28;20025;-70
2023/06/24 07:04:17;;;;;;;9.32;8.02;;;;;;;19.02;89.19;102440.38;5083261;28;20530;-70
2023/06/24 07:06:45;;;;;;;9.60;8.10;;;;;;;19.11;90.06;102445.38;5084712;28;20132;-70
2023/06/24 07:09:11;;;;;;;13.73;8.13;;;;;;;19.14;88.69;102432.06;5082565;28;20038;-70
2023/06/24 07:11:36;;;;;;;11.05;7.85;;;;;;;19.23;88.48;102444.06;5085819;28;20099;-70
2023/06/24 07:14:01;;;;;;;10.77;8.00;;;;;;;19.21;89.76;102438.84;5080698;28;20510;-70
2023/06/24 07:16:27;;;;;;;10.13;8.07;;;;;;;19.35;90.42;102456.88;5088202;28;20453;-70
2023/06/24 07:18:52;;;;;;;11.15;8.30;;;;;;;19.42;87.02;102453.09;5073492;28;20076;-71
2023/06/24 07:21:17;;;;;;;12.35;8.73;;;;;;;19.48;86.70;102446.75;5088445;28;20499;-70
2023/06/24 07:23:43;;;;;;;12.23;8.40;;;;;;;19.55;87.38;102446.47;5080585;28;20115;-70
2023/06/24 07:26:08;;;;;;;12.75;9.20;;;;;;;19.60;83.03;102436.59;5086747;28;20085;-70
2023/06/24 07:28:33;;;;;;;9.45;8.00;;;;;;;19.67;88.21;102441.69;5081402;28;20036;-71
2023/06/24 07:30:59;;;;;;;8.40;7.55;;;;;;;19.74;85.26;102437.91;5085519;28;20472;-70
2023/06/24 07:33:27;;;;;;;8.88;7.05;;;;;;;19.87;82.53;102434.72;5082604;28;20498;-71
2023/06/24 07:35:52;;;;;;;12.60;6.78;;;;;;;19.95;83.12;102438.91;5083799;28;20380;-71
2023/06/24 07:38:18;;;;;;;10.13;6.68;;;;;;;19.99;81.68;102428.13;5083331;28;20035;-71
2023/06/24 07:40:43;;;;;;;9.02;7.05;;;;;;;20.12;83.13;102439.13;5083326;28;20032;-71
2023/06/24 07:43:08;;;;;;;9.77;7.05;;;;;;;20.21;81.14;102443.19;5083884;28;20060;-70
2023/06/24 07:45:33;;;;;;;8.73;7.10;;;;;;;20.28;78.69;102444.69;5083016;28;20028;-71
2023/06/24 07:47:59;;;;;;;8.02;6.93;;;;;;;20.23;78.11;102423.66;5080774;28;20099;-77
2023/06/24 07:50:24;;;;;;;8.35;6.65;;;;;;;20.43;77.10;102435.25;5083382;28;20035;-77
2023/06/24 07:52:50;;;;;;;7.32;5.55;;;;;;;20.43;75.75;102429.97;5080019;28;20029;-76
2023/06/24 07:55:15;;;;;;;6.07;4.70;;;;;;;20.57;69.92;102439.13;5083915;28;20039;-71
2023/06/24 07:57:45;;;;;;;4.95;4.07;;;;;;;20.64;70.66;102444.19;5081800;28;20032;-71
2023/06/24 08:00:11;;;;;;;6.30;4.50;;;;;;;20.70;74.46;102442.16;5082202;28;20036;-71
2023/06/24 08:02:36;;;;;;;5.13;4.30;;;;;;;20.83;74.17;102434.56;5079306;28;20036;-71
2023/06/24 08:05:01;;;;;;;7.25;5.07;;;;;;;20.84;72.06;102438.94;5082088;28;20118;-71
2023/06/24 08:07:27;;;;;;;6.00;4.82;;;;;;;20.92;68.62;102441.25;5082715;28;20031;-71
2023/06/24 08:09:52;;;;;;;5.25;4.18;;;;;;;21.03;69.67;102437.25;5083622;28;20032;-71
2023/06/24 08:12:17;;;;;;;4.32;3.92;;;;;;;21.19;64.11;102441.88;5082486;28;20107;-71
2023/06/24 08:14:42;;;;;;;5.43;3.38;;;;;;;21.29;68.70;102435.28;5082643;28;20056;-71
2023/06/24 08:17:08;;;;;;;4.35;3.90;;;;;;;21.33;66.93;102434.19;5082333;28;20109;-71
2023/06/24 08:19:33;;;;;;;4.20;3.50;;;;;;;21.42;64.33;102433.84;5083233;28;20383;-71
2023/06/24 08:21:58;;;;;;;3.60;3.00;;;;;;;21.57;62.52;102426.13;5084085;28;20024;-71
2023/06/24 08:24:24;;;;;;;4.47;2.88;;;;;;;21.63;63.86;102439.97;5081309;28;20032;-71
2023/06/24 08:26:49;;;;;;;6.45;2.90;;;;;;;21.66;61.58;102434.53;5090940;28;20028;-71
2023/06/24 08:29:14;;;;;;;4.43;2.88;;;;;;;21.67;61.35;102428.28;5082898;28;20438;-71
2023/06/24 08:31:40;;;;;;;3.50;2.88;;;;;;;21.77;59.56;102425.22;5091780;28;20039;-71
2023/06/24 08:34:06;;;;;;;4.55;3.03;;;;;;;21.91;59.56;102425.47;5084038;28;20360;-71
2023/06/24 08:36:32;;;;;;;3.60;2.85;;;;;;;21.92;61.25;102403.28;5091375;28;20054;-71
2023/06/24 08:38:57;;;;;;;4.43;2.97;;;;;;;22.16;59.85;102428.69;5083814;28;20375;-71
2023/06/24 08:41:24;;;;;;;4.00;2.70;;;;;;;22.20;57.62;102425.00;5083801;28;20024;-71
2023/06/24 08:43:50;;;;;;;3.20;2.70;;;;;;;22.26;56.89;102428.28;5082735;28;20036;-71
2023/06/24 08:46:17;;;;;;;3.30;2.58;;;;;;;22.23;56.83;102417.78;5084162;28;20061;-71
2023/06/24 08:48:45;;;;;;;4.10;3.13;;;;;;;22.34;52.80;102421.66;5088568;28;20089;-71
2023/06/24 08:51:13;;;;;;;4.13;3.50;;;;;;;22.39;55.80;102421.44;5083605;28;20109;-71
2023/06/24 08:53:42;;;;;;;3.53;3.20;;;;;;;22.55;56.27;102419.75;5088785;28;20028;-71
2023/06/24 08:56:07;;;;;;;4.65;3.50;;;;;;;22.56;53.92;102413.53;5082551;28;20051;-70
2023/06/24 08:58:33;;;;;;;3.35;2.78;;;;;;;22.67;59.92;102424.47;5087280;28;20387;-71
2023/06/24 09:01:00;;;;;;;3.15;2.85;;;;;;;22.77;60.44;102413.41;5078007;28;20067;-71
2023/06/24 09:03:25;;;;;;;3.33;3.00;;;;;;;22.97;55.00;102415.06;5078616;28;20032;-71
2023/06/24 09:05:51;;;;;;;5.28;3.28;;;;;;;22.97;55.18;102399.13;5090558;28;20042;-71
2023/06/24 09:08:16;;;;;;;5.13;3.63;;;;;;;23.15;52.39;102408.78;5083588;28;20385;-71
2023/06/24 09:10:41;;;;;;;4.15;3.20;;;;;;;23.30;55.19;102415.97;5087573;27;20816;-71
2023/06/24 09:13:07;;;;;;;3.75;3.00;;;;;;;23.41;56.25;102420.72;5085318;28;20415;-71
2023/06/24 09:15:40;;;;;;;4.22;3.13;;;;;;;23.51;54.50;102414.00;5086307;28;20052;-71
2023/06/24 09:18:05;;;;;;;5.13;3.25;;;;;;;23.56;54.38;102411.09;5085657;28;20038;-71
2023/06/24 09:20:32;;;;;;;4.10;2.90;;;;;;;23.66;56.05;102411.47;5085306;28;20387;-71
2023/06/24 09:23:03;;;;;;;4.43;3.50;;;;;;;23.75;50.36;102397.69;5086188;28;20032;-71
2023/06/24 09:25:28;;;;;;;4.65;3.03;;;;;;;23.74;53.25;102401.28;5084488;28;20036;-71
2023/06/24 09:27:55;;;;;;;3.60;2.30;;;;;;;23.80;47.48;102403.59;5085904;28;20494;-71
2023/06/24 09:30:23;;;;;;;3.00;2.63;;;;;;;23.86;46.99;102403.28;5085479;28;20093;-71
2023/06/24 09:32:49;;;;;;;3.90;2.85;;;;;;;23.93;51.67;102391.31;5085203;28;20107;-71
2023/06/24 09:35:20;;;;;;;5.43;3.00;;;;;;;24.03;49.20;102392.56;5085477;28;20489;-71
2023/06/24 09:37:56;;;;;;;3.35;2.80;;;;;;;24.16;48.19;102383.88;5082564;28;20438;-71
2023/06/24 09:40:22;;;;;;;3.20;2.83;;;;;;;24.25;51.85;102380.69;5085900;28;20073;-71
2023/06/24 09:42:56;;;;;;;4.18;3.03;;;;;;;24.40;47.73;102385.16;5083125;28;20082;-71
2023/06/24 09:45:28;;;;;;;4.45;2.97;;;;;;;24.58;49.89;102377.06;5085050;28;20028;-71
2023/06/24 09:47:55;;;;;;;5.18;2.75;;;;;;;24.61;48.41;102374.22;5082803;28;20472;-71
2023/06/24 09:50:20;;;;;;;4.13;2.53;;;;;;;24.65;45.97;102378.41;5085908;28;20031;-71
2023/06/24 09:52:48;;;;;;;4.03;2.50;;;;;;;24.55;43.95;102362.09;5081886;28;20025;-71
2023/06/24 09:55:14;;;;;;;2.92;2.35;;;;;;;24.58;45.48;102374.38;5085394;28;20028;-71
2023/06/24 09:57:43;;;;;;;3.38;2.40;;;;;;;24.72;46.14;102380.63;5083756;28;20028;-71
2023/06/24 10:00:10;;;;;;;3.35;2.60;;;;;;;24.81;46.17;102368.53;5086403;28;20024;-71
2023/06/24 10:02:36;;;;;;;3.58;2.63;;;;;;;24.96;42.66;102364.97;5081180;28;20036;-71
2023/06/24 10:05:02;;;;;;;2.60;2.40;;;;;;;25.05;45.75;102368.03;5083990;28;20036;-71
2023/06/24 10:07:28;;;;;;;3.03;2.30;;;;;;;25.19;44.83;102373.44;5084214;28;20024;-71
2023/06/24 10:09:57;;;;;;;2.80;2.40;;;;;;;25.34;42.70;102384.94;5085305;28;20081;-71
2023/06/24 10:12:22;;;;;;;3.53;2.45;;;;;;;25.41;45.92;102380.97;5085320;28;20016;-72
2023/06/24 10:14:48;;;;;;;3.78;2.75;;;;;;;25.50;43.82;102382.19;5078020;28;20082;-71
2023/06/24 10:17:13;;;;;;;4.65;2.80;;;;;;;25.57;47.14;102371.06;5083006;28;20054;-71
2023/06/24 10:19:40;;;;;;;3.35;2.90;;;;;;;25.58;44.19;102366.56;5084658;28;20261;-71
2023/06/24 10:22:12;;;;;;;3.30;2.47;;;;;;;25.57;43.45;102364.84;5084280;28;20028;-71
2023/06/24 10:24:41;;;;;;;3.20;2.60;;;;;;;25.65;43.95;102368.75;5076672;28;20122;-71
2023/06/24 10:27:16;;;;;;;4.18;2.97;;;;;;;25.77;44.83;102369.78;5085069;28;20094;-71
2023/06/24 10:29:50;;;;;;;3.47;3.17;;;;;;;25.77;44.25;102368.91;5070581;28;20067;-71
2023/06/24 10:32:17;;;;;;;5.68;3.00;;;;;;;25.73;44.24;102367.41;5082656;28;20429;-71
2023/06/24 10:34:44;;;;;;;4.30;2.80;;;;;;;25.81;43.51;102359.81;5083357;28;20753;-71
2023/06/24 10:37:21;;;;;;;3.05;2.85;;;;;;;25.83;43.10;102353.41;5084026;28;20865;-71
2023/06/24 10:40:00;;;;;;;4.47;3.10;;;;;;;25.92;42.53;102362.63;5083798;28;20115;-71
2023/06/24 10:42:28;;;;;;;3.47;3.17;;;;;;;26.10;43.77;102357.91;5081666;28;20056;-71
2023/06/24 10:44:55;;;;;;;7.03;3.10;;;;;;;26.16;42.57;102346.84;5078951;28;20077;-71
2023/06/24 10:47:22;;;;;;;8.68;2.92;;;;;;;26.32;42.64;102352.88;5083229;28;20476;-71
2023/06/24 10:49:48;;;;;;;3.17;2.83;;;;;;;26.42;42.13;102347.75;5081840;28;20496;-71
2023/06/24 10:52:13;;;;;;;6.18;3.30;;;;;;;26.51;42.63;102349.84;5084594;28;20108;-71
2023/06/24 10:54:41;;;;;;;4.60;3.00;;;;;;;26.54;44.45;102343.44;5082235;28;20082;-72
2023/06/24 10:57:07;;;;;;;3.63;3.30;;;;;;;26.58;43.36;102344.94;5083378;28;20024;-71
2023/06/24 10:59:39;;;;;;;3.58;3.10;;;;;;;26.41;40.14;102340.69;5086753;28;20032;-71
2023/06/24 11:02:04;;;;;;;4.43;2.90;;;;;;;26.45;43.57;102336.00;5079212;28;20036;-71
2023/06/24 11:04:29;;;;;;;4.25;3.17;;;;;;;26.57;43.94;102335.22;5083415;28;20375;-71
2023/06/24 11:06:59;;;;;;;3.92;3.13;;;;;;;26.69;42.79;102341.56;5083355;28;20548;-71
2023/06/24 11:09:28;;;;;;;5.55;3.10;;;;;;;26.83;42.67;102333.44;5083228;28;20031;-72